sensor_id;sensor_type;location;lat;lon;timestamp;P1;durP1;ratioP1;P2;durP2;ratioP2
13032;SDS011;6583;42.632;23.298;2022-09-09T00:00:18;10.13;;;9.20;;
13032;SDS011;6583;42.632;23.298;2022-09-09T00:02:48;10.63;;;9.68;;
13032;SDS011;6583;42.632;23.298;2022-09-09T00:05:23;10.15;;;9.25;;
13032;SDS011;6583;42.632;23.298;2022-09-09T00:07:58;11.00;;;9.90;;
13032;SDS011;6583;42.632;23.298;2022-09-09T00:10:29;10.38;;;9.40;;
13032;SDS011;6583;42.632;23.298;2022-09-09T00:13:01;10.68;;;9.60;;
13032;SDS011;6583;42.632;23.298;2022-09-09T00:15:36;10.00;;;9.20;;
13032;SDS011;6583;42.632;23.298;2022-09-09T00:18:13;10.88;;;9.77;;
13032;SDS011;6583;42.632;23.298;2022-09-09T00:20:49;9.90;;;9.10;;
13032;SDS011;6583;42.632;23.298;2022-09-09T00:23:25;9.73;;;8.93;;
13032;SDS011;6583;42.632;23.298;2022-09-09T00:25:58;10.32;;;9.43;;
13032;SDS011;6583;42.632;23.298;2022-09-09T00:28:30;10.23;;;9.23;;
13032;SDS011;6583;42.632;23.298;2022-09-09T00:31:07;9.85;;;8.95;;
13032;SDS011;6583;42.632;23.298;2022-09-09T00:33:38;9.73;;;8.93;;
13032;SDS011;6583;42.632;23.298;2022-09-09T00:36:09;10.27;;;9.43;;
13032;SDS011;6583;42.632;23.298;2022-09-09T00:38:42;9.90;;;9.02;;
13032;SDS011;6583;42.632;23.298;2022-09-09T00:41:14;9.73;;;8.82;;
13032;SDS011;6583;42.632;23.298;2022-09-09T00:43:50;10.30;;;9.38;;
13032;SDS011;6583;42.632;23.298;2022-09-09T00:46:32;10.63;;;9.65;;
13032;SDS011;6583;42.632;23.298;2022-09-09T00:49:12;10.32;;;9.43;;
13032;SDS011;6583;42.632;23.298;2022-09-09T00:51:48;10.05;;;9.15;;
13032;SDS011;6583;42.632;23.298;2022-09-09T00:54:37;10.23;;;9.32;;
13032;SDS011;6583;42.632;23.298;2022-09-09T00:57:13;11.07;;;10.18;;
13032;SDS011;6583;42.632;23.298;2022-09-09T00:59:50;10.77;;;9.68;;
13032;SDS011;6583;42.632;23.298;2022-09-09T01:02:21;11.70;;;10.60;;
13032;SDS011;6583;42.632;23.298;2022-09-09T01:04:54;9.85;;;8.90;;
13032;SDS011;6583;42.632;23.298;2022-09-09T01:07:24;10.40;;;9.50;;
13032;SDS011;6583;42.632;23.298;2022-09-09T01:09:54;11.20;;;10.20;;
13032;SDS011;6583;42.632;23.298;2022-09-09T01:12:28;10.95;;;9.95;;
13032;SDS011;6583;42.632;23.298;2022-09-09T01:15:07;10.75;;;9.75;;
13032;SDS011;6583;42.632;23.298;2022-09-09T01:17:39;10.52;;;9.63;;
13032;SDS011;6583;42.632;23.298;2022-09-09T01:20:16;11.02;;;9.88;;
13032;SDS011;6583;42.632;23.298;2022-09-09T01:22:52;10.98;;;10.00;;
13032;SDS011;6583;42.632;23.298;2022-09-09T01:25:56;11.20;;;10.20;;
13032;SDS011;6583;42.632;23.298;2022-09-09T01:28:36;10.90;;;9.90;;
13032;SDS011;6583;42.632;23.298;2022-09-09T01:31:04;10.68;;;9.77;;
13032;SDS011;6583;42.632;23.298;2022-09-09T01:33:34;11.32;;;10.32;;
13032;SDS011;6583;42.632;23.298;2022-09-09T01:36:02;10.20;;;9.35;;
13032;SDS011;6583;42.632;23.298;2022-09-09T01:38:33;10.80;;;9.90;;
13032;SDS011;6583;42.632;23.298;2022-09-09T01:41:03;10.55;;;9.35;;
13032;SDS011;6583;42.632;23.298;2022-09-09T01:43:30;10.68;;;9.73;;
13032;SDS011;6583;42.632;23.298;2022-09-09T01:45:58;10.27;;;9.25;;
13032;SDS011;6583;42.632;23.298;2022-09-09T01:48:27;10.52;;;9.50;;
13032;SDS011;6583;42.632;23.298;2022-09-09T01:50:54;11.32;;;9.82;;
13032;SDS011;6583;42.632;23.298;2022-09-09T01:53:21;10.85;;;9.75;;
13032;SDS011;6583;42.632;23.298;2022-09-09T01:55:54;10.73;;;9.75;;
13032;SDS011;6583;42.632;23.298;2022-09-09T01:58:31;10.80;;;9.90;;
13032;SDS011;6583;42.632;23.298;2022-09-09T02:01:06;10.35;;;9.35;;
13032;SDS011;6583;42.632;23.298;2022-09-09T02:03:42;10.80;;;9.80;;
13032;SDS011;6583;42.632;23.298;2022-09-09T02:06:14;10.80;;;9.80;;
13032;SDS011;6583;42.632;23.298;2022-09-09T02:08:52;10.85;;;9.82;;
13032;SDS011;6583;42.632;23.298;2022-09-09T02:11:23;10.85;;;9.82;;
13032;SDS011;6583;42.632;23.298;2022-09-09T02:13:53;10.45;;;9.55;;
13032;SDS011;6583;42.632;23.298;2022-09-09T02:16:24;9.90;;;8.90;;
13032;SDS011;6583;42.632;23.298;2022-09-09T02:18:56;10.38;;;9.45;;
13032;SDS011;6583;42.632;23.298;2022-09-09T02:21:29;10.55;;;9.55;;
13032;SDS011;6583;42.632;23.298;2022-09-09T02:24:00;10.68;;;9.60;;
13032;SDS011;6583;42.632;23.298;2022-09-09T02:26:30;9.93;;;9.00;;
13032;SDS011;6583;42.632;23.298;2022-09-09T02:29:01;10.57;;;9.55;;
13032;SDS011;6583;42.632;23.298;2022-09-09T02:31:30;10.38;;;9.32;;
13032;SDS011;6583;42.632;23.298;2022-09-09T02:34:01;10.82;;;9.82;;
13032;SDS011;6583;42.632;23.298;2022-09-09T02:36:31;9.93;;;9.02;;
13032;SDS011;6583;42.632;23.298;2022-09-09T02:39:00;9.65;;;8.85;;
13032;SDS011;6583;42.632;23.298;2022-09-09T02:41:30;10.02;;;9.23;;
13032;SDS011;6583;42.632;23.298;2022-09-09T02:44:00;10.68;;;9.68;;
13032;SDS011;6583;42.632;23.298;2022-09-09T02:46:33;10.35;;;9.35;;
13032;SDS011;6583;42.632;23.298;2022-09-09T02:49:09;10.82;;;9.88;;
13032;SDS011;6583;42.632;23.298;2022-09-09T02:51:44;10.48;;;9.57;;
13032;SDS011;6583;42.632;23.298;2022-09-09T02:54:21;10.23;;;9.32;;
13032;SDS011;6583;42.632;23.298;2022-09-09T02:56:55;10.30;;;9.23;;
13032;SDS011;6583;42.632;23.298;2022-09-09T02:59:30;10.32;;;9.43;;
13032;SDS011;6583;42.632;23.298;2022-09-09T03:01:57;10.55;;;9.65;;
13032;SDS011;6583;42.632;23.298;2022-09-09T03:04:24;10.15;;;9.25;;
13032;SDS011;6583;42.632;23.298;2022-09-09T03:06:51;10.75;;;9.60;;
13032;SDS011;6583;42.632;23.298;2022-09-09T03:09:17;10.55;;;9.65;;
13032;SDS011;6583;42.632;23.298;2022-09-09T03:11:44;10.75;;;9.82;;
13032;SDS011;6583;42.632;23.298;2022-09-09T03:14:11;10.90;;;9.85;;
13032;SDS011;6583;42.632;23.298;2022-09-09T03:16:39;10.93;;;10.02;;
13032;SDS011;6583;42.632;23.298;2022-09-09T03:19:07;10.80;;;9.80;;
13032;SDS011;6583;42.632;23.298;2022-09-09T03:21:33;10.55;;;9.65;;
13032;SDS011;6583;42.632;23.298;2022-09-09T03:24:01;9.98;;;9.07;;
13032;SDS011;6583;42.632;23.298;2022-09-09T03:26:28;11.68;;;10.00;;
13032;SDS011;6583;42.632;23.298;2022-09-09T03:28:55;11.38;;;10.27;;
13032;SDS011;6583;42.632;23.298;2022-09-09T03:31:22;10.57;;;9.52;;
13032;SDS011;6583;42.632;23.298;2022-09-09T03:33:50;10.60;;;9.70;;
13032;SDS011;6583;42.632;23.298;2022-09-09T03:36:17;9.05;;;8.35;;
13032;SDS011;6583;42.632;23.298;2022-09-09T03:38:43;10.57;;;9.68;;
13032;SDS011;6583;42.632;23.298;2022-09-09T03:41:10;10.43;;;9.52;;
13032;SDS011;6583;42.632;23.298;2022-09-09T03:43:37;10.50;;;9.50;;
13032;SDS011;6583;42.632;23.298;2022-09-09T03:46:04;11.07;;;9.98;;
13032;SDS011;6583;42.632;23.298;2022-09-09T03:48:31;11.00;;;10.00;;
13032;SDS011;6583;42.632;23.298;2022-09-09T03:50:59;10.05;;;9.25;;
13032;SDS011;6583;42.632;23.298;2022-09-09T03:53:26;10.52;;;9.63;;
13032;SDS011;6583;42.632;23.298;2022-09-09T03:55:55;10.68;;;9.63;;
13032;SDS011;6583;42.632;23.298;2022-09-09T03:58:24;10.52;;;9.60;;
13032;SDS011;6583;42.632;23.298;2022-09-09T04:00:55;11.07;;;9.95;;
13032;SDS011;6583;42.632;23.298;2022-09-09T04:03:22;10.77;;;9.85;;
13032;SDS011;6583;42.632;23.298;2022-09-09T04:05:50;10.38;;;9.52;;
13032;SDS011;6583;42.632;23.298;2022-09-09T04:08:18;10.73;;;9.63;;
13032;SDS011;6583;42.632;23.298;2022-09-09T04:10:46;10.35;;;9.52;;
13032;SDS011;6583;42.632;23.298;2022-09-09T04:13:13;10.52;;;9.52;;
13032;SDS011;6583;42.632;23.298;2022-09-09T04:15:42;17.55;;;11.32;;
13032;SDS011;6583;42.632;23.298;2022-09-09T04:18:10;10.57;;;9.48;;
13032;SDS011;6583;42.632;23.298;2022-09-09T04:20:37;10.80;;;9.77;;
13032;SDS011;6583;42.632;23.298;2022-09-09T04:23:04;11.15;;;10.02;;
13032;SDS011;6583;42.632;23.298;2022-09-09T04:25:32;12.15;;;10.13;;
13032;SDS011;6583;42.632;23.298;2022-09-09T04:27:59;12.40;;;9.40;;
13032;SDS011;6583;42.632;23.298;2022-09-09T04:30:26;10.90;;;9.75;;
13032;SDS011;6583;42.632;23.298;2022-09-09T04:32:53;11.45;;;10.27;;
13032;SDS011;6583;42.632;23.298;2022-09-09T04:35:20;11.70;;;10.50;;
13032;SDS011;6583;42.632;23.298;2022-09-09T04:37:46;11.77;;;9.80;;
13032;SDS011;6583;42.632;23.298;2022-09-09T04:40:14;12.25;;;10.60;;
13032;SDS011;6583;42.632;23.298;2022-09-09T04:42:42;11.13;;;10.02;;
13032;SDS011;6583;42.632;23.298;2022-09-09T04:45:09;15.05;;;10.93;;
13032;SDS011;6583;42.632;23.298;2022-09-09T04:47:38;16.90;;;13.75;;
13032;SDS011;6583;42.632;23.298;2022-09-09T04:50:06;12.52;;;11.32;;
13032;SDS011;6583;42.632;23.298;2022-09-09T04:52:33;12.05;;;10.73;;
13032;SDS011;6583;42.632;23.298;2022-09-09T04:55:00;13.07;;;11.77;;
13032;SDS011;6583;42.632;23.298;2022-09-09T04:57:29;13.52;;;12.38;;
13032;SDS011;6583;42.632;23.298;2022-09-09T04:59:58;14.55;;;12.98;;
13032;SDS011;6583;42.632;23.298;2022-09-09T05:02:26;17.13;;;13.90;;
13032;SDS011;6583;42.632;23.298;2022-09-09T05:04:55;11.70;;;10.68;;
13032;SDS011;6583;42.632;23.298;2022-09-09T05:07:21;23.02;;;15.23;;
13032;SDS011;6583;42.632;23.298;2022-09-09T05:09:48;14.23;;;12.85;;
13032;SDS011;6583;42.632;23.298;2022-09-09T05:12:15;14.57;;;13.07;;
13032;SDS011;6583;42.632;23.298;2022-09-09T05:14:42;15.35;;;13.70;;
13032;SDS011;6583;42.632;23.298;2022-09-09T05:17:10;13.60;;;12.20;;
13032;SDS011;6583;42.632;23.298;2022-09-09T05:19:38;16.40;;;13.52;;
13032;SDS011;6583;42.632;23.298;2022-09-09T05:22:05;14.88;;;13.38;;
13032;SDS011;6583;42.632;23.298;2022-09-09T05:24:32;15.48;;;13.30;;
13032;SDS011;6583;42.632;23.298;2022-09-09T05:26:59;14.48;;;13.05;;
13032;SDS011;6583;42.632;23.298;2022-09-09T05:29:27;17.65;;;13.85;;
13032;SDS011;6583;42.632;23.298;2022-09-09T05:31:54;13.85;;;11.98;;
13032;SDS011;6583;42.632;23.298;2022-09-09T05:34:22;14.25;;;13.05;;
13032;SDS011;6583;42.632;23.298;2022-09-09T05:36:48;14.77;;;13.27;;
13032;SDS011;6583;42.632;23.298;2022-09-09T05:39:16;15.70;;;12.75;;
13032;SDS011;6583;42.632;23.298;2022-09-09T05:41:42;13.80;;;12.23;;
13032;SDS011;6583;42.632;23.298;2022-09-09T05:44:09;14.38;;;13.00;;
13032;SDS011;6583;42.632;23.298;2022-09-09T05:46:36;17.45;;;13.82;;
13032;SDS011;6583;42.632;23.298;2022-09-09T05:49:03;14.75;;;13.30;;
13032;SDS011;6583;42.632;23.298;2022-09-09T05:51:31;15.52;;;14.00;;
13032;SDS011;6583;42.632;23.298;2022-09-09T05:53:58;16.45;;;14.93;;
13032;SDS011;6583;42.632;23.298;2022-09-09T05:56:26;16.92;;;15.32;;
13032;SDS011;6583;42.632;23.298;2022-09-09T05:58:53;21.60;;;16.05;;
13032;SDS011;6583;42.632;23.298;2022-09-09T06:01:22;16.83;;;14.70;;
13032;SDS011;6583;42.632;23.298;2022-09-09T06:03:50;17.95;;;16.13;;
13032;SDS011;6583;42.632;23.298;2022-09-09T06:06:18;18.08;;;15.52;;
13032;SDS011;6583;42.632;23.298;2022-09-09T06:08:49;19.80;;;16.02;;
13032;SDS011;6583;42.632;23.298;2022-09-09T06:11:17;17.10;;;15.32;;
13032;SDS011;6583;42.632;23.298;2022-09-09T06:13:45;16.55;;;14.93;;
13032;SDS011;6583;42.632;23.298;2022-09-09T06:16:13;17.48;;;15.63;;
13032;SDS011;6583;42.632;23.298;2022-09-09T06:18:41;16.85;;;14.43;;
13032;SDS011;6583;42.632;23.298;2022-09-09T06:21:09;18.08;;;14.55;;
13032;SDS011;6583;42.632;23.298;2022-09-09T06:23:41;17.48;;;15.30;;
13032;SDS011;6583;42.632;23.298;2022-09-09T06:26:11;18.60;;;14.90;;
13032;SDS011;6583;42.632;23.298;2022-09-09T06:28:39;17.02;;;15.23;;
13032;SDS011;6583;42.632;23.298;2022-09-09T06:31:08;16.27;;;14.50;;
13032;SDS011;6583;42.632;23.298;2022-09-09T06:33:37;16.33;;;14.63;;
13032;SDS011;6583;42.632;23.298;2022-09-09T06:36:06;17.13;;;14.70;;
13032;SDS011;6583;42.632;23.298;2022-09-09T06:38:36;15.27;;;13.68;;
13032;SDS011;6583;42.632;23.298;2022-09-09T06:41:03;15.98;;;14.00;;
13032;SDS011;6583;42.632;23.298;2022-09-09T06:43:32;17.50;;;13.90;;
13032;SDS011;6583;42.632;23.298;2022-09-09T06:46:00;16.83;;;14.10;;
13032;SDS011;6583;42.632;23.298;2022-09-09T06:48:28;14.57;;;13.05;;
13032;SDS011;6583;42.632;23.298;2022-09-09T06:51:02;15.73;;;14.18;;
13032;SDS011;6583;42.632;23.298;2022-09-09T06:53:30;17.67;;;14.57;;
13032;SDS011;6583;42.632;23.298;2022-09-09T06:55:58;20.52;;;14.25;;
13032;SDS011;6583;42.632;23.298;2022-09-09T06:58:26;18.40;;;15.05;;
13032;SDS011;6583;42.632;23.298;2022-09-09T07:01:00;17.77;;;14.20;;
13032;SDS011;6583;42.632;23.298;2022-09-09T07:03:28;15.73;;;13.30;;
13032;SDS011;6583;42.632;23.298;2022-09-09T07:05:55;14.38;;;12.82;;
13032;SDS011;6583;42.632;23.298;2022-09-09T07:08:22;15.18;;;13.20;;
13032;SDS011;6583;42.632;23.298;2022-09-09T07:10:49;17.13;;;12.85;;
13032;SDS011;6583;42.632;23.298;2022-09-09T07:13:16;16.10;;;12.35;;
13032;SDS011;6583;42.632;23.298;2022-09-09T07:15:46;14.57;;;12.73;;
13032;SDS011;6583;42.632;23.298;2022-09-09T07:18:14;13.25;;;11.82;;
13032;SDS011;6583;42.632;23.298;2022-09-09T07:20:40;15.40;;;12.25;;
13032;SDS011;6583;42.632;23.298;2022-09-09T07:23:07;13.50;;;12.18;;
13032;SDS011;6583;42.632;23.298;2022-09-09T07:25:34;16.67;;;12.35;;
13032;SDS011;6583;42.632;23.298;2022-09-09T07:28:01;14.80;;;12.60;;
13032;SDS011;6583;42.632;23.298;2022-09-09T07:30:32;13.20;;;11.80;;
13032;SDS011;6583;42.632;23.298;2022-09-09T07:32:59;13.18;;;12.02;;
13032;SDS011;6583;42.632;23.298;2022-09-09T07:35:27;15.43;;;12.23;;
13032;SDS011;6583;42.632;23.298;2022-09-09T07:37:54;13.23;;;11.45;;
13032;SDS011;6583;42.632;23.298;2022-09-09T07:40:21;14.55;;;12.05;;
13032;SDS011;6583;42.632;23.298;2022-09-09T07:42:47;14.18;;;11.00;;
13032;SDS011;6583;42.632;23.298;2022-09-09T07:45:14;12.25;;;11.05;;
13032;SDS011;6583;42.632;23.298;2022-09-09T07:47:41;14.30;;;11.23;;
13032;SDS011;6583;42.632;23.298;2022-09-09T07:50:08;16.75;;;11.77;;
13032;SDS011;6583;42.632;23.298;2022-09-09T07:52:38;13.10;;;10.90;;
13032;SDS011;6583;42.632;23.298;2022-09-09T07:55:05;13.98;;;11.23;;
13032;SDS011;6583;42.632;23.298;2022-09-09T07:57:31;12.38;;;10.90;;
13032;SDS011;6583;42.632;23.298;2022-09-09T07:59:58;12.30;;;11.15;;
13032;SDS011;6583;42.632;23.298;2022-09-09T08:02:25;12.10;;;10.80;;
13032;SDS011;6583;42.632;23.298;2022-09-09T08:04:54;12.27;;;11.07;;
13032;SDS011;6583;42.632;23.298;2022-09-09T08:07:21;11.60;;;10.40;;
13032;SDS011;6583;42.632;23.298;2022-09-09T08:09:49;13.43;;;11.38;;
13032;SDS011;6583;42.632;23.298;2022-09-09T08:12:16;11.15;;;10.05;;
13032;SDS011;6583;42.632;23.298;2022-09-09T08:14:43;12.30;;;10.15;;
13032;SDS011;6583;42.632;23.298;2022-09-09T08:17:10;13.98;;;10.60;;
13032;SDS011;6583;42.632;23.298;2022-09-09T08:19:36;11.70;;;9.98;;
13032;SDS011;6583;42.632;23.298;2022-09-09T08:22:03;15.32;;;10.10;;
13032;SDS011;6583;42.632;23.298;2022-09-09T08:24:30;12.45;;;10.20;;
13032;SDS011;6583;42.632;23.298;2022-09-09T08:26:58;14.85;;;10.10;;
13032;SDS011;6583;42.632;23.298;2022-09-09T08:29:24;11.07;;;10.05;;
13032;SDS011;6583;42.632;23.298;2022-09-09T08:31:54;10.77;;;9.68;;
13032;SDS011;6583;42.632;23.298;2022-09-09T08:34:22;12.45;;;10.48;;
13032;SDS011;6583;42.632;23.298;2022-09-09T08:36:50;15.57;;;10.77;;
13032;SDS011;6583;42.632;23.298;2022-09-09T08:39:17;11.48;;;9.77;;
13032;SDS011;6583;42.632;23.298;2022-09-09T08:44:57;11.95;;;9.88;;
13032;SDS011;6583;42.632;23.298;2022-09-09T08:47:39;10.52;;;9.40;;
13032;SDS011;6583;42.632;23.298;2022-09-09T08:50:18;11.05;;;9.85;;
13032;SDS011;6583;42.632;23.298;2022-09-09T08:52:51;11.55;;;9.55;;
13032;SDS011;6583;42.632;23.298;2022-09-09T08:55:24;10.75;;;9.63;;
13032;SDS011;6583;42.632;23.298;2022-09-09T08:57:57;10.35;;;9.27;;
13032;SDS011;6583;42.632;23.298;2022-09-09T09:00:27;13.13;;;10.00;;
13032;SDS011;6583;42.632;23.298;2022-09-09T09:03:09;10.80;;;9.57;;
13032;SDS011;6583;42.632;23.298;2022-09-09T09:05:46;10.85;;;8.93;;
13032;SDS011;6583;42.632;23.298;2022-09-09T09:08:18;11.90;;;9.75;;
13032;SDS011;6583;42.632;23.298;2022-09-09T09:10:54;11.45;;;9.10;;
13032;SDS011;6583;42.632;23.298;2022-09-09T09:13:26;18.67;;;10.55;;
13032;SDS011;6583;42.632;23.298;2022-09-09T09:16:02;11.90;;;8.88;;
13032;SDS011;6583;42.632;23.298;2022-09-09T09:18:40;10.85;;;9.05;;
13032;SDS011;6583;42.632;23.298;2022-09-09T09:21:08;13.70;;;9.18;;
13032;SDS011;6583;42.632;23.298;2022-09-09T09:23:41;12.20;;;8.90;;
13032;SDS011;6583;42.632;23.298;2022-09-09T09:26:11;9.55;;;8.65;;
13032;SDS011;6583;42.632;23.298;2022-09-09T09:28:40;11.48;;;8.55;;
13032;SDS011;6583;42.632;23.298;2022-09-09T09:31:08;9.85;;;8.77;;
13032;SDS011;6583;42.632;23.298;2022-09-09T09:33:38;10.70;;;8.30;;
13032;SDS011;6583;42.632;23.298;2022-09-09T09:36:12;14.32;;;8.65;;
13032;SDS011;6583;42.632;23.298;2022-09-09T09:38:40;9.27;;;8.27;;
13032;SDS011;6583;42.632;23.298;2022-09-09T09:41:28;9.10;;;8.20;;
13032;SDS011;6583;42.632;23.298;2022-09-09T09:43:57;9.73;;;8.70;;
13032;SDS011;6583;42.632;23.298;2022-09-09T09:46:25;10.07;;;8.18;;
13032;SDS011;6583;42.632;23.298;2022-09-09T09:48:58;10.25;;;8.68;;
13032;SDS011;6583;42.632;23.298;2022-09-09T09:51:26;10.73;;;7.70;;
13032;SDS011;6583;42.632;23.298;2022-09-09T09:54:08;12.23;;;8.20;;
13032;SDS011;6583;42.632;23.298;2022-09-09T09:56:41;8.80;;;7.88;;
13032;SDS011;6583;42.632;23.298;2022-09-09T09:59:20;9.30;;;7.82;;
13032;SDS011;6583;42.632;23.298;2022-09-09T10:01:49;10.25;;;7.60;;
13032;SDS011;6583;42.632;23.298;2022-09-09T10:04:17;11.05;;;7.95;;
13032;SDS011;6583;42.632;23.298;2022-09-09T10:06:45;8.30;;;7.50;;
13032;SDS011;6583;42.632;23.298;2022-09-09T10:09:21;7.95;;;7.25;;
13032;SDS011;6583;42.632;23.298;2022-09-09T10:11:51;7.10;;;6.50;;
13032;SDS011;6583;42.632;23.298;2022-09-09T10:14:29;8.23;;;7.38;;
13032;SDS011;6583;42.632;23.298;2022-09-09T10:17:05;9.82;;;8.10;;
13032;SDS011;6583;42.632;23.298;2022-09-09T10:19:44;10.07;;;8.13;;
13032;SDS011;6583;42.632;23.298;2022-09-09T10:22:24;8.27;;;7.43;;
13032;SDS011;6583;42.632;23.298;2022-09-09T10:27:47;8.77;;;7.88;;
13032;SDS011;6583;42.632;23.298;2022-09-09T10:30:23;9.32;;;7.90;;
13032;SDS011;6583;42.632;23.298;2022-09-09T10:32:56;9.45;;;7.75;;
13032;SDS011;6583;42.632;23.298;2022-09-09T10:35:31;12.60;;;7.65;;
13032;SDS011;6583;42.632;23.298;2022-09-09T10:38:17;12.95;;;7.78;;
13032;SDS011;6583;42.632;23.298;2022-09-09T10:40:50;9.27;;;8.02;;
13032;SDS011;6583;42.632;23.298;2022-09-09T10:43:37;9.45;;;8.50;;
13032;SDS011;6583;42.632;23.298;2022-09-09T10:46:15;12.07;;;8.45;;
13032;SDS011;6583;42.632;23.298;2022-09-09T10:48:54;9.80;;;7.90;;
13032;SDS011;6583;42.632;23.298;2022-09-09T10:51:36;10.40;;;7.55;;
13032;SDS011;6583;42.632;23.298;2022-09-09T10:54:23;12.07;;;7.88;;
13032;SDS011;6583;42.632;23.298;2022-09-09T10:56:59;12.52;;;8.15;;
13032;SDS011;6583;42.632;23.298;2022-09-09T10:59:35;10.15;;;8.52;;
13032;SDS011;6583;42.632;23.298;2022-09-09T11:02:11;9.48;;;7.70;;
13032;SDS011;6583;42.632;23.298;2022-09-09T11:04:45;8.77;;;7.85;;
13032;SDS011;6583;42.632;23.298;2022-09-09T11:07:21;8.70;;;7.80;;
13032;SDS011;6583;42.632;23.298;2022-09-09T11:09:57;9.50;;;8.23;;
13032;SDS011;6583;42.632;23.298;2022-09-09T11:12:28;11.05;;;8.25;;
13032;SDS011;6583;42.632;23.298;2022-09-09T11:14:58;8.60;;;7.75;;
13032;SDS011;6583;42.632;23.298;2022-09-09T11:17:33;9.15;;;8.20;;
13032;SDS011;6583;42.632;23.298;2022-09-09T11:20:06;9.00;;;8.10;;
13032;SDS011;6583;42.632;23.298;2022-09-09T11:22:39;10.07;;;8.05;;
13032;SDS011;6583;42.632;23.298;2022-09-09T11:25:14;10.27;;;8.80;;
13032;SDS011;6583;42.632;23.298;2022-09-09T11:27:44;11.25;;;8.65;;
13032;SDS011;6583;42.632;23.298;2022-09-09T11:30:28;12.57;;;9.23;;
13032;SDS011;6583;42.632;23.298;2022-09-09T11:33:16;14.77;;;8.60;;
13032;SDS011;6583;42.632;23.298;2022-09-09T11:36:06;16.92;;;14.43;;
13032;SDS011;6583;42.632;23.298;2022-09-09T11:38:50;14.63;;;13.10;;
13032;SDS011;6583;42.632;23.298;2022-09-09T11:41:18;15.32;;;11.48;;
13032;SDS011;6583;42.632;23.298;2022-09-09T11:43:47;14.35;;;11.77;;
13032;SDS011;6583;42.632;23.298;2022-09-09T11:46:17;12.70;;;9.43;;
13032;SDS011;6583;42.632;23.298;2022-09-09T11:48:58;14.05;;;10.10;;
13032;SDS011;6583;42.632;23.298;2022-09-09T11:51:27;16.38;;;9.77;;
13032;SDS011;6583;42.632;23.298;2022-09-09T11:53:56;11.50;;;8.88;;
13032;SDS011;6583;42.632;23.298;2022-09-09T11:56:24;13.55;;;9.35;;
13032;SDS011;6583;42.632;23.298;2022-09-09T11:58:54;12.68;;;9.10;;
13032;SDS011;6583;42.632;23.298;2022-09-09T12:01:27;12.13;;;9.60;;
13032;SDS011;6583;42.632;23.298;2022-09-09T12:07:04;12.23;;;9.40;;
13032;SDS011;6583;42.632;23.298;2022-09-09T12:09:50;9.88;;;8.85;;
13032;SDS011;6583;42.632;23.298;2022-09-09T12:12:29;12.88;;;9.93;;
13032;SDS011;6583;42.632;23.298;2022-09-09T12:14:58;13.40;;;9.73;;
13032;SDS011;6583;42.632;23.298;2022-09-09T12:17:46;10.05;;;8.90;;
13032;SDS011;6583;42.632;23.298;2022-09-09T12:20:14;10.65;;;9.35;;
13032;SDS011;6583;42.632;23.298;2022-09-09T12:25:48;11.90;;;10.23;;
13032;SDS011;6583;42.632;23.298;2022-09-09T12:28:26;13.77;;;9.82;;
13032;SDS011;6583;42.632;23.298;2022-09-09T12:31:04;11.55;;;9.88;;
13032;SDS011;6583;42.632;23.298;2022-09-09T12:33:39;11.35;;;10.15;;
13032;SDS011;6583;42.632;23.298;2022-09-09T12:36:09;10.73;;;9.52;;
13032;SDS011;6583;42.632;23.298;2022-09-09T12:38:40;15.80;;;10.25;;
13032;SDS011;6583;42.632;23.298;2022-09-09T12:41:17;15.50;;;10.60;;
13032;SDS011;6583;42.632;23.298;2022-09-09T12:43:46;14.35;;;10.80;;
13032;SDS011;6583;42.632;23.298;2022-09-09T12:46:15;13.02;;;9.27;;
13032;SDS011;6583;42.632;23.298;2022-09-09T12:48:50;12.05;;;10.50;;
13032;SDS011;6583;42.632;23.298;2022-09-09T12:51:18;13.13;;;9.60;;
13032;SDS011;6583;42.632;23.298;2022-09-09T12:53:47;12.38;;;9.60;;
13032;SDS011;6583;42.632;23.298;2022-09-09T12:56:20;12.98;;;10.15;;
13032;SDS011;6583;42.632;23.298;2022-09-09T12:58:48;11.82;;;10.30;;
13032;SDS011;6583;42.632;23.298;2022-09-09T13:01:20;15.70;;;9.90;;
13032;SDS011;6583;42.632;23.298;2022-09-09T13:03:48;13.63;;;10.07;;
13032;SDS011;6583;42.632;23.298;2022-09-09T13:06:18;15.45;;;10.70;;
13032;SDS011;6583;42.632;23.298;2022-09-09T13:08:47;12.57;;;10.02;;
13032;SDS011;6583;42.632;23.298;2022-09-09T13:11:15;15.05;;;10.15;;
13032;SDS011;6583;42.632;23.298;2022-09-09T13:13:51;11.43;;;10.23;;
13032;SDS011;6583;42.632;23.298;2022-09-09T13:16:21;11.73;;;9.38;;
13032;SDS011;6583;42.632;23.298;2022-09-09T13:18:51;11.48;;;9.85;;
13032;SDS011;6583;42.632;23.298;2022-09-09T13:21:18;12.25;;;10.15;;
13032;SDS011;6583;42.632;23.298;2022-09-09T13:23:48;13.00;;;10.70;;
13032;SDS011;6583;42.632;23.298;2022-09-09T13:26:21;13.55;;;9.90;;
13032;SDS011;6583;42.632;23.298;2022-09-09T13:28:50;12.02;;;10.30;;
13032;SDS011;6583;42.632;23.298;2022-09-09T13:31:20;10.52;;;9.15;;
13032;SDS011;6583;42.632;23.298;2022-09-09T13:33:49;11.05;;;9.45;;
13032;SDS011;6583;42.632;23.298;2022-09-09T13:36:26;14.38;;;10.00;;
13032;SDS011;6583;42.632;23.298;2022-09-09T13:38:56;11.77;;;9.35;;
13032;SDS011;6583;42.632;23.298;2022-09-09T13:41:25;12.30;;;9.52;;
13032;SDS011;6583;42.632;23.298;2022-09-09T13:43:56;11.63;;;10.35;;
13032;SDS011;6583;42.632;23.298;2022-09-09T13:46:30;12.23;;;10.65;;
13032;SDS011;6583;42.632;23.298;2022-09-09T13:48:59;13.75;;;9.85;;
13032;SDS011;6583;42.632;23.298;2022-09-09T13:51:33;11.13;;;9.95;;
13032;SDS011;6583;42.632;23.298;2022-09-09T13:54:02;13.32;;;10.07;;
13032;SDS011;6583;42.632;23.298;2022-09-09T13:56:30;15.63;;;9.65;;
13032;SDS011;6583;42.632;23.298;2022-09-09T13:58:59;12.25;;;10.13;;
13032;SDS011;6583;42.632;23.298;2022-09-09T14:01:25;12.60;;;9.80;;
13032;SDS011;6583;42.632;23.298;2022-09-09T14:03:53;11.27;;;10.02;;
13032;SDS011;6583;42.632;23.298;2022-09-09T14:06:19;11.90;;;8.98;;
13032;SDS011;6583;42.632;23.298;2022-09-09T14:08:47;9.82;;;8.93;;
13032;SDS011;6583;42.632;23.298;2022-09-09T14:11:16;11.55;;;9.32;;
13032;SDS011;6583;42.632;23.298;2022-09-09T14:13:43;10.68;;;9.02;;
13032;SDS011;6583;42.632;23.298;2022-09-09T14:16:11;10.43;;;9.35;;
13032;SDS011;6583;42.632;23.298;2022-09-09T14:18:38;13.82;;;10.15;;
13032;SDS011;6583;42.632;23.298;2022-09-09T14:21:05;14.90;;;9.80;;
13032;SDS011;6583;42.632;23.298;2022-09-09T14:23:33;13.23;;;9.57;;
13032;SDS011;6583;42.632;23.298;2022-09-09T14:26:00;11.93;;;9.35;;
13032;SDS011;6583;42.632;23.298;2022-09-09T14:28:27;13.52;;;10.18;;
13032;SDS011;6583;42.632;23.298;2022-09-09T14:30:54;13.90;;;10.20;;
13032;SDS011;6583;42.632;23.298;2022-09-09T14:33:23;14.98;;;10.45;;
13032;SDS011;6583;42.632;23.298;2022-09-09T14:35:54;11.20;;;9.60;;
13032;SDS011;6583;42.632;23.298;2022-09-09T14:38:22;14.38;;;9.77;;
13032;SDS011;6583;42.632;23.298;2022-09-09T14:40:48;12.75;;;10.07;;
13032;SDS011;6583;42.632;23.298;2022-09-09T14:43:15;11.75;;;9.82;;
13032;SDS011;6583;42.632;23.298;2022-09-09T14:45:41;15.88;;;10.63;;
13032;SDS011;6583;42.632;23.298;2022-09-09T14:48:09;13.13;;;10.20;;
13032;SDS011;6583;42.632;23.298;2022-09-09T14:50:37;13.32;;;10.68;;
13032;SDS011;6583;42.632;23.298;2022-09-09T14:53:05;13.13;;;10.27;;
13032;SDS011;6583;42.632;23.298;2022-09-09T14:55:32;14.30;;;9.80;;
13032;SDS011;6583;42.632;23.298;2022-09-09T14:57:58;13.30;;;10.23;;
13032;SDS011;6583;42.632;23.298;2022-09-09T15:00:25;10.98;;;9.80;;
13032;SDS011;6583;42.632;23.298;2022-09-09T15:02:52;11.77;;;9.80;;